Time;durP1;ratioP1;P1;durP2;ratioP2;P2;SDS_P1;SDS_P2;PMS_P1;PMS_P2;Temp;Humidity;BMP_temperature;BMP_pressure;BME280_temperature;BME280_humidity;BME280_pressure;Samples;Min_cycle;Max_cycle;Signal;HPM_P1;HPM_P2
2021/09/19 00:02:41;;;;;;;24.33;11.23;;;;;;;10.85;100.00;100323.91;713990;1199;115518;-76
2021/09/19 00:17:44;;;;;;;10.23;5.20;;;;;;;10.89;100.00;100325.33;713721;1199;115668;-78
2021/09/19 00:32:46;;;;;;;9.73;4.88;;;;;;;10.84;100.00;100315.22;713857;1184;114712;-78
2021/09/19 00:47:49;;;;;;;9.00;5.28;;;;;;;10.81;100.00;100311.08;713965;1200;114374;-76
2021/09/19 01:02:53;;;;;;;6.53;4.10;;;;;;;10.73;100.00;100321.42;713940;1201;114844;-76
2021/09/19 01:17:58;;;;;;;5.98;3.55;;;;;;;10.65;100.00;100316.03;714010;1203;114526;-76
2021/09/19 01:33:01;;;;;;;9.70;3.28;;;;;;;10.60;100.00;100315.60;713796;1203;114480;-75
2021/09/19 01:48:04;;;;;;;8.60;4.43;;;;;;;10.55;100.00;100305.50;713809;1203;115019;-76
2021/09/19 02:03:06;;;;;;;10.73;3.40;;;;;;;10.59;100.00;100308.69;713817;1199;115391;-74
2021/09/19 02:18:09;;;;;;;7.00;2.63;;;;;;;10.61;100.00;100297.10;713952;1203;114740;-76
2021/09/19 02:33:12;;;;;;;6.23;3.60;;;;;;;10.53;100.00;100289.08;713784;1202;115466;-75
2021/09/19 02:48:14;;;;;;;4.18;2.65;;;;;;;10.52;100.00;100281.33;713777;1202;114513;-77
2021/09/19 03:03:16;;;;;;;4.75;2.70;;;;;;;10.58;100.00;100268.49;714178;1199;114195;-76
2021/09/19 03:18:19;;;;;;;3.50;2.48;;;;;;;10.61;100.00;100262.15;713827;1203;114505;-77
2021/09/19 03:33:21;;;;;;;4.23;2.98;;;;;;;10.65;100.00;100255.69;713823;1202;114814;-76
2021/09/19 03:48:24;;;;;;;4.80;2.95;;;;;;;10.62;100.00;100259.41;713774;1203;115322;-77
2021/09/19 04:03:26;;;;;;;6.27;2.93;;;;;;;10.61;100.00;100259.53;713996;1202;115003;-76
2021/09/19 04:18:28;;;;;;;4.10;2.33;;;;;;;10.59;100.00;100256.22;713797;1199;114548;-76
2021/09/19 04:33:31;;;;;;;3.58;2.03;;;;;;;10.54;100.00;100253.17;714023;1200;114237;-76
2021/09/19 04:48:33;;;;;;;3.27;1.93;;;;;;;10.53;100.00;100268.09;713952;1200;115724;-76
2021/09/19 05:03:35;;;;;;;5.20;2.60;;;;;;;10.62;100.00;100274.30;713882;1203;114319;-76
2021/09/19 05:18:38;;;;;;;8.23;4.63;;;;;;;10.71;100.00;100265.62;713877;1200;115769;-77
2021/09/19 05:33:41;;;;;;;5.05;2.85;;;;;;;10.86;100.00;100273.09;713952;1200;114406;-78
2021/09/19 05:48:43;;;;;;;6.73;3.00;;;;;;;11.04;100.00;100273.24;713947;1202;115362;-78
2021/09/19 06:03:45;;;;;;;7.00;2.95;;;;;;;11.26;100.00;100277.38;713886;1202;115502;-77
2021/09/19 06:18:47;;;;;;;5.33;3.23;;;;;;;11.46;100.00;100286.88;713923;1203;114244;-74
2021/09/19 06:33:50;;;;;;;3.67;2.47;;;;;;;12.03;100.00;100286.05;713801;1202;114254;-74
2021/09/19 06:48:52;;;;;;;11.65;3.80;;;;;;;12.65;100.00;100282.83;713920;1202;114597;-73
2021/09/19 07:03:55;;;;;;;4.80;3.08;;;;;;;12.31;100.00;100283.43;714025;1200;114403;-81
2021/09/19 07:18:58;;;;;;;4.37;2.93;;;;;;;12.40;100.00;100273.84;715147;1203;114212;-84
2021/09/19 07:34:00;;;;;;;6.80;5.50;;;;;;;13.10;100.00;100281.92;714624;1179;114918;-80
2021/09/19 07:49:02;;;;;;;13.78;8.63;;;;;;;13.69;94.11;100299.03;716105;1180;114189;-76
2021/09/19 08:04:05;;;;;;;5.70;2.97;;;;;;;13.15;95.30;100297.28;715046;1200;114068;-86
2021/09/19 08:19:08;;;;;;;10.78;4.33;;;;;;;13.53;96.72;100297.13;715119;1193;113995;-84
2021/09/19 08:34:11;;;;;;;4.60;2.45;;;;;;;13.89;95.56;100305.73;715417;1200;114264;-86
2021/09/19 08:49:16;;;;;;;8.18;3.83;;;;;;;13.91;92.89;100301.14;715633;1200;114611;-85
2021/09/19 09:04:21;;;;;;;7.67;3.27;;;;;;;14.04;94.33;100310.42;715245;1200;114110;-86
2021/09/19 09:19:39;;;;;;;8.23;2.73;;;;;;;13.94;91.56;100307.91;714988;1177;114234;-86
2021/09/19 09:34:41;;;;;;;5.70;3.65;;;;;;;14.30;90.71;100321.75;715939;1176;114218;-79
2021/09/19 09:49:50;;;;;;;3.20;2.15;;;;;;;15.09;90.09;100304.81;715470;1199;113845;-80
2021/09/19 10:04:56;;;;;;;7.70;4.83;;;;;;;15.23;88.07;100321.81;729418;1199;113011;-79
2021/09/19 10:20:01;;;;;;;8.58;4.73;;;;;;;15.08;88.07;100329.58;719561;1199;114061;-82
2021/09/19 10:35:15;;;;;;;5.70;3.10;;;;;;;14.78;87.72;100343.23;714778;1200;113991;-80
2021/09/19 10:50:35;;;;;;;10.30;6.00;;;;;;;14.48;88.05;100334.04;715203;1177;113926;-90
2021/09/19 11:05:47;;;;;;;4.65;3.10;;;;;;;14.34;89.41;100343.38;716651;1202;114583;-79
2021/09/19 11:21:21;;;;;;;6.07;3.40;;;;;;;14.23;90.61;100341.03;715571;1200;114685;-78
2021/09/19 11:36:23;;;;;;;5.60;3.55;;;;;;;14.16;92.68;100346.11;714442;1200;113874;-78
2021/09/19 11:51:25;;;;;;;6.15;3.78;;;;;;;14.44;93.22;100354.64;714425;1199;114935;-79
2021/09/19 12:06:28;;;;;;;11.13;8.27;;;;;;;14.42;91.99;100364.52;715049;1179;113782;-78
2021/09/19 12:21:34;;;;;;;10.53;4.98;;;;;;;14.15;92.80;100366.38;714530;1200;114153;-78
2021/09/19 12:36:43;;;;;;;10.35;4.75;;;;;;;13.96;94.00;100371.86;715300;1199;114142;-87
2021/09/19 12:52:06;;;;;;;25.65;10.50;;;;;;;14.32;94.57;100366.47;715789;1203;114225;-87
2021/09/19 13:07:09;;;;;;;14.50;6.77;;;;;;;14.30;92.99;100371.06;715335;1177;113769;-88
2021/09/19 13:22:11;;;;;;;17.05;7.95;;;;;;;14.39;94.41;100380.67;715464;1200;114102;-88
2021/09/19 13:37:14;;;;;;;15.93;7.25;;;;;;;14.18;94.31;100382.88;716198;1199;115816;-87
2021/09/19 13:52:17;;;;;;;17.05;8.68;;;;;;;14.15;96.07;100376.92;716262;1199;114111;-89
2021/09/19 14:07:19;;;;;;;13.45;5.70;;;;;;;14.53;95.80;100387.18;715539;1203;114223;-87
2021/09/19 14:22:23;;;;;;;6.85;4.15;;;;;;;14.18;96.78;100399.53;715724;1200;114195;-87
2021/09/19 14:37:27;;;;;;;12.25;5.53;;;;;;;13.97;97.68;100390.16;715949;1199;114138;-88
2021/09/19 14:52:29;;;;;;;17.28;8.80;;;;;;;13.62;99.12;100398.98;717703;1199;115339;-89
2021/09/19 15:07:31;;;;;;;11.55;7.00;;;;;;;13.38;100.00;100403.06;722249;1199;114689;-88
2021/09/19 15:22:35;;;;;;;10.78;6.28;;;;;;;13.08;100.00;100412.13;720001;1177;114400;-86
2021/09/19 15:37:38;;;;;;;27.98;13.23;;;;;;;13.11;100.00;100402.09;715994;1199;116209;-86
2021/09/19 15:52:43;;;;;;;70.15;33.48;;;;;;;12.97;100.00;100416.61;715414;1200;114547;-75
2021/09/19 16:07:45;;;;;;;26.33;13.67;;;;;;;12.84;100.00;100415.29;714779;1199;114532;-76
2021/09/19 16:22:48;;;;;;;22.63;12.58;;;;;;;12.76;100.00;100410.75;714259;1193;114949;-76
2021/09/19 16:37:52;;;;;;;20.58;10.80;;;;;;;12.61;100.00;100415.68;714915;1192;114578;-85
2021/09/19 16:52:54;;;;;;;17.85;10.83;;;;;;;12.48;100.00;100422.11;714875;1183;114508;-85
2021/09/19 17:07:56;;;;;;;21.57;11.50;;;;;;;12.09;100.00;100424.84;714589;1200;115735;-81
2021/09/19 17:22:59;;;;;;;14.55;8.95;;;;;;;11.99;100.00;100440.63;714361;1192;115054;-81
2021/09/19 17:38:02;;;;;;;24.63;11.58;;;;;;;11.94;100.00;100452.50;714361;1177;114494;-81
2021/09/19 17:53:04;;;;;;;20.95;8.45;;;;;;;11.80;100.00;100461.66;714261;1203;114726;-81
2021/09/19 18:08:08;;;;;;;30.40;15.13;;;;;;;11.76;100.00;100487.38;714344;1181;115477;-81
2021/09/19 18:23:12;;;;;;;28.75;14.33;;;;;;;11.71;100.00;100496.66;714365;1177;114708;-77
2021/09/19 18:38:15;;;;;;;33.53;15.60;;;;;;;11.65;100.00;100484.88;714720;1177;114473;-83
2021/09/19 18:53:17;;;;;;;24.63;14.08;;;;;;;11.63;100.00;100492.08;714771;1200;115802;-84
2021/09/19 19:08:20;;;;;;;18.23;9.57;;;;;;;11.59;100.00;100503.84;714593;1199;115136;-84
2021/09/19 19:23:22;;;;;;;16.67;6.93;;;;;;;11.51;100.00;100501.89;714979;1199;115471;-82
2021/09/19 19:38:25;;;;;;;9.60;6.15;;;;;;;11.30;100.00;100502.80;715662;1200;114765;-79
2021/09/19 19:53:28;;;;;;;8.50;5.63;;;;;;;11.31;100.00;100507.09;714562;1199;114140;-79
2021/09/19 20:08:32;;;;;;;14.10;8.20;;;;;;;11.26;100.00;100511.92;714814;1176;114064;-78
2021/09/19 20:23:35;;;;;;;13.33;6.43;;;;;;;11.17;100.00;100527.66;715016;1200;114411;-83
2021/09/19 20:38:37;;;;;;;8.70;5.10;;;;;;;11.09;100.00;100530.94;714804;1177;114348;-84
2021/09/19 20:53:43;;;;;;;17.93;5.98;;;;;;;10.83;100.00;100557.61;715003;1196;114328;-82
2021/09/19 21:08:45;;;;;;;13.38;6.98;;;;;;;10.57;100.00;100568.53;715299;1176;115756;-84
2021/09/19 21:23:48;;;;;;;12.13;7.03;;;;;;;10.40;100.00;100572.55;715180;1184;114438;-83
2021/09/19 21:38:50;;;;;;;9.17;5.97;;;;;;;10.02;100.00;100573.88;715102;1176;115056;-83
2021/09/19 21:53:52;;;;;;;13.10;9.03;;;;;;;9.98;100.00;100573.28;715954;1200;113995;-82
2021/09/19 22:08:56;;;;;;;12.43;6.78;;;;;;;10.02;100.00;100581.73;727188;1199;114979;-82
2021/09/19 22:23:59;;;;;;;10.23;5.35;;;;;;;9.77;100.00;100586.33;725885;1176;113156;-81
2021/09/19 22:39:03;;;;;;;8.35;3.80;;;;;;;9.46;100.00;100573.05;714261;1176;114701;-83
2021/09/19 22:54:05;;;;;;;8.73;4.50;;;;;;;9.15;100.00;100567.58;714172;1203;113938;-82
2021/09/19 23:09:07;;;;;;;12.50;6.08;;;;;;;8.79;100.00;100569.47;713943;1175;114314;-82
2021/09/19 23:24:09;;;;;;;9.13;5.30;;;;;;;8.58;100.00;100574.54;714094;1199;115183;-82
2021/09/19 23:39:11;;;;;;;10.45;5.38;;;;;;;8.82;100.00;100573.64;714056;1174;113965;-82
2021/09/19 23:54:13;;;;;;;11.10;6.77;;;;;;;9.12;100.00;100578.30;714064;1199;115635;-83
